createdAt,value
2019-03-03T00:00:31.627Z,23.77
2019-03-03T00:03:00.596Z,21.77
2019-03-03T00:05:29.527Z,20.90
2019-03-03T00:07:58.522Z,24.63
2019-03-03T00:10:27.182Z,24.17
2019-03-03T00:12:55.786Z,24.23
2019-03-03T00:15:24.449Z,14.17
2019-03-03T00:17:53.070Z,19.70
2019-03-03T00:20:21.838Z,18.20
2019-03-03T00:22:50.444Z,29.73
2019-03-03T00:25:19.046Z,15.40
2019-03-03T00:27:47.697Z,18.37
2019-03-03T00:30:17.314Z,23.50
2019-03-03T00:32:45.975Z,16.67
2019-03-03T00:35:14.611Z,19.60
2019-03-03T00:37:47.748Z,16.33
2019-03-03T00:40:34.538Z,25.00
2019-03-03T00:43:10.621Z,15.27
2019-03-03T00:45:46.579Z,22.77
2019-03-03T00:48:32.896Z,22.13
2019-03-03T00:51:14.839Z,18.10
2019-03-03T00:53:45.052Z,20.03
2019-03-03T00:56:15.326Z,17.80
2019-03-03T00:58:45.564Z,24.47
2019-03-03T01:01:24.365Z,25.43
2019-03-03T01:03:54.600Z,20.53
2019-03-03T01:06:30.850Z,16.70
2019-03-03T01:09:01.466Z,15.03
2019-03-03T01:14:26.801Z,13.73
2019-03-03T01:17:06.116Z,14.60
2019-03-03T01:19:39.191Z,11.73
2019-03-03T01:22:21.581Z,18.67
2019-03-03T01:24:59.108Z,19.27
2019-03-03T01:27:27.754Z,6.87
2019-03-03T01:29:56.388Z,17.67
2019-03-03T01:32:25.932Z,13.93
2019-03-03T01:34:54.579Z,18.20
2019-03-03T01:37:23.545Z,10.83
2019-03-03T01:39:52.223Z,16.07
2019-03-03T01:42:20.861Z,10.07
2019-03-03T01:44:49.581Z,16.60
2019-03-03T01:47:18.263Z,10.97
2019-03-03T01:49:47.175Z,12.97
2019-03-03T01:52:16.173Z,6.93
2019-03-03T01:54:44.749Z,11.23
2019-03-03T01:57:14.310Z,7.37
2019-03-03T01:59:42.966Z,12.97
2019-03-03T02:02:11.595Z,9.53
2019-03-03T02:04:40.161Z,13.53
2019-03-03T02:07:08.768Z,12.83
2019-03-03T02:09:37.433Z,6.83
2019-03-03T02:12:06.041Z,13.57
2019-03-03T02:14:34.711Z,13.20
2019-03-03T02:17:03.717Z,11.40
2019-03-03T02:19:32.376Z,14.17
2019-03-03T02:22:01.041Z,13.80
2019-03-03T02:24:29.664Z,7.73
2019-03-03T02:26:58.327Z,8.10
2019-03-03T02:29:26.959Z,16.20
2019-03-03T02:31:55.576Z,7.73
2019-03-03T02:34:24.226Z,12.10
2019-03-03T02:36:53.205Z,19.17
2019-03-03T02:39:21.851Z,11.67
2019-03-03T02:41:50.774Z,13.10
2019-03-03T02:44:19.781Z,11.17
2019-03-03T02:46:48.778Z,13.27
2019-03-03T02:49:17.412Z,17.92
2019-03-03T02:51:46.069Z,14.23
2019-03-03T02:54:14.721Z,7.92
2019-03-03T02:56:43.353Z,8.43
2019-03-03T02:59:11.963Z,7.90
2019-03-03T03:01:42.213Z,18.53
2019-03-03T03:04:11.012Z,13.67
2019-03-03T03:06:44.213Z,17.53
2019-03-03T03:09:14.917Z,11.80
2019-03-03T03:11:47.594Z,14.73
2019-03-03T03:14:17.833Z,16.73
2019-03-03T03:17:00.083Z,10.03
2019-03-03T03:19:33.323Z,11.90
2019-03-03T03:22:06.585Z,14.93
2019-03-03T03:24:39.787Z,21.00
2019-03-03T03:27:09.961Z,10.87
2019-03-03T03:29:43.053Z,12.17
2019-03-03T03:32:29.570Z,12.70
2019-03-03T03:35:08.436Z,7.60
2019-03-03T03:37:50.560Z,10.13
2019-03-03T03:40:29.837Z,15.97
2019-03-03T03:43:00.082Z,15.53
2019-03-03T03:45:30.336Z,14.23
2019-03-03T03:48:09.505Z,12.27
2019-03-03T03:50:39.693Z,14.50
2019-03-03T03:53:12.820Z,20.13
2019-03-03T03:55:45.669Z,14.07
2019-03-03T03:58:18.676Z,6.37
2019-03-03T04:00:54.979Z,4.93
2019-03-03T04:03:28.402Z,13.70
2019-03-03T04:06:07.532Z,11.67
2019-03-03T04:08:46.498Z,10.70
2019-03-03T04:11:19.405Z,9.97
2019-03-03T04:13:55.629Z,6.80
2019-03-03T04:16:25.819Z,9.50
2019-03-03T04:19:12.067Z,5.17
2019-03-03T04:21:57.202Z,7.40
2019-03-03T04:24:30.309Z,3.57
2019-03-03T04:27:37.910Z,8.60
2019-03-03T04:30:19.344Z,9.97
2019-03-03T04:32:52.579Z,7.80
2019-03-03T04:35:31.839Z,2.10
2019-03-03T04:38:02.008Z,5.27
2019-03-03T04:40:32.227Z,2.23
2019-03-03T04:43:04.987Z,2.57
2019-03-03T04:45:37.835Z,2.03
2019-03-03T04:48:23.857Z,1.60
2019-03-03T04:50:54.055Z,1.73
2019-03-03T04:53:33.070Z,0.90
2019-03-03T04:56:09.184Z,1.53
2019-03-03T04:58:48.145Z,0.80
2019-03-03T05:01:18.363Z,1.17
2019-03-03T05:03:51.661Z,0.70
2019-03-03T05:06:38.654Z,1.60
2019-03-03T05:09:14.603Z,2.10
2019-03-03T05:12:04.714Z,1.53
2019-03-03T05:14:34.908Z,0.70
2019-03-03T05:17:06.047Z,0.77
2019-03-03T05:19:34.708Z,0.57
2019-03-03T05:22:03.331Z,0.80
2019-03-03T05:24:34.553Z,0.70
2019-03-03T05:27:02.241Z,0.97
2019-03-03T05:29:31.159Z,0.67
2019-03-03T05:31:59.809Z,0.60
2019-03-03T05:34:28.482Z,0.60
2019-03-03T05:36:57.138Z,0.60
2019-03-03T05:39:25.753Z,0.50
2019-03-03T05:41:55.374Z,0.70
2019-03-03T05:44:24.023Z,0.60
2019-03-03T05:46:52.683Z,0.60
2019-03-03T05:49:21.298Z,2.53
2019-03-03T05:51:50.090Z,0.60
2019-03-03T05:54:18.705Z,1.17
2019-03-03T05:56:47.323Z,0.50
2019-03-03T05:59:15.981Z,0.67
2019-03-03T06:01:45.502Z,0.70
2019-03-03T06:04:15.036Z,0.83
2019-03-03T06:06:43.681Z,0.70
2019-03-03T06:09:12.336Z,2.23
2019-03-03T06:11:40.960Z,0.90
2019-03-03T06:14:10.028Z,1.97
2019-03-03T06:16:38.665Z,2.37
2019-03-03T06:19:07.310Z,2.50
2019-03-03T06:21:35.964Z,2.53
2019-03-03T06:24:04.574Z,0.93
2019-03-03T06:26:33.211Z,1.80
2019-03-03T06:29:01.815Z,0.97
2019-03-03T06:31:30.397Z,1.30
2019-03-03T06:33:58.999Z,0.93
2019-03-03T06:36:27.649Z,1.13
2019-03-03T06:38:56.317Z,1.90
2019-03-03T06:41:24.926Z,1.80
2019-03-03T06:43:53.584Z,1.67
2019-03-03T06:46:22.197Z,0.90
2019-03-03T06:48:51.199Z,0.60
2019-03-03T06:51:19.792Z,0.70
2019-03-03T06:53:48.436Z,0.83
2019-03-03T06:56:17.016Z,1.33
2019-03-03T06:58:45.687Z,0.60
2019-03-03T07:01:14.303Z,0.60
2019-03-03T07:03:43.195Z,1.50
2019-03-03T07:06:11.819Z,1.67
2019-03-03T07:08:40.459Z,1.10
2019-03-03T07:11:10.089Z,3.73
2019-03-03T07:13:38.930Z,0.97
2019-03-03T07:16:07.555Z,0.60
2019-03-03T07:18:36.210Z,2.17
2019-03-03T07:21:04.835Z,1.63
2019-03-03T07:23:33.476Z,0.97
2019-03-03T07:26:02.066Z,1.77
2019-03-03T07:28:30.711Z,1.00
2019-03-03T07:31:00.144Z,0.97
2019-03-03T07:33:30.368Z,0.80
2019-03-03T07:35:58.987Z,0.73
2019-03-03T07:38:27.648Z,0.73
2019-03-03T07:40:56.315Z,0.70
2019-03-03T07:43:24.921Z,1.07
2019-03-03T07:45:53.562Z,0.90
2019-03-03T07:48:22.184Z,0.80
2019-03-03T07:50:50.844Z,1.03
2019-03-03T07:53:19.521Z,0.80
2019-03-03T07:55:48.535Z,2.23
2019-03-03T07:58:17.107Z,0.97
2019-03-03T08:00:45.714Z,1.13
2019-03-03T08:03:14.590Z,1.00
2019-03-03T08:05:43.577Z,1.00
2019-03-03T08:08:12.229Z,0.87
2019-03-03T08:10:40.853Z,1.00
2019-03-03T08:13:09.739Z,0.80
2019-03-03T08:15:38.563Z,1.23
2019-03-03T08:18:07.177Z,0.50
2019-03-03T08:20:35.837Z,0.60
2019-03-03T08:23:04.448Z,0.50
2019-03-03T08:25:33.075Z,0.55
2019-03-03T08:28:01.661Z,0.60
2019-03-03T08:30:31.120Z,0.60
2019-03-03T08:32:59.837Z,1.20
2019-03-03T08:35:30.750Z,1.00
2019-03-03T08:37:59.367Z,0.50
2019-03-03T08:40:28.110Z,0.70
2019-03-03T08:43:04.333Z,0.85
2019-03-03T08:45:37.150Z,0.70
2019-03-03T08:48:12.925Z,0.70
2019-03-03T08:50:46.316Z,0.60
2019-03-03T08:53:22.494Z,1.12
2019-03-03T08:55:55.484Z,0.67
2019-03-03T08:58:25.709Z,0.67
2019-03-03T09:00:55.932Z,2.17
2019-03-03T09:03:38.410Z,0.70
2019-03-03T09:06:23.824Z,1.22
2019-03-03T09:08:54.048Z,1.20
2019-03-03T09:11:40.367Z,2.67
2019-03-03T09:14:10.545Z,0.80
2019-03-03T09:16:41.046Z,3.27
2019-03-03T09:19:19.897Z,1.47
2019-03-03T09:21:50.122Z,1.67
2019-03-03T09:24:26.371Z,1.37
2019-03-03T09:27:05.204Z,2.83
2019-03-03T09:29:35.421Z,0.90
2019-03-03T09:32:11.623Z,1.15
2019-03-03T09:34:44.623Z,0.90
2019-03-03T09:37:17.709Z,2.10
2019-03-03T09:39:47.954Z,2.67
2019-03-03T09:42:18.145Z,2.75
2019-03-03T09:44:48.293Z,1.87
2019-03-03T09:47:33.791Z,2.87
2019-03-03T09:50:12.543Z,3.27
2019-03-03T09:52:48.298Z,2.58
2019-03-03T09:55:30.759Z,3.20
2019-03-03T09:58:06.769Z,3.55
2019-03-03T10:00:45.705Z,1.87
2019-03-03T10:03:32.188Z,1.72
2019-03-03T10:06:02.770Z,2.37
2019-03-03T10:08:32.953Z,2.60
2019-03-03T10:11:03.186Z,1.50
2019-03-03T10:13:33.741Z,0.70
2019-03-03T10:16:03.969Z,1.65
2019-03-03T10:18:37.002Z,1.20
2019-03-03T10:21:12.795Z,0.70
2019-03-03T10:23:43.028Z,0.70
2019-03-03T10:26:31.763Z,1.27
2019-03-03T10:29:07.695Z,3.17
2019-03-03T10:31:37.924Z,1.02
2019-03-03T10:34:23.178Z,0.40
2019-03-03T10:37:09.623Z,4.03
2019-03-03T10:39:42.278Z,3.10
2019-03-03T10:42:12.637Z,0.70
2019-03-03T10:44:48.612Z,0.60
2019-03-03T10:47:25.352Z,0.70
2019-03-03T10:49:58.309Z,0.95
2019-03-03T10:52:37.374Z,2.47
2019-03-03T10:55:11.713Z,0.60
2019-03-03T10:57:41.904Z,0.95
2019-03-03T11:00:33.494Z,0.50
2019-03-03T11:03:06.285Z,0.88
2019-03-03T11:05:36.824Z,3.50
2019-03-03T11:08:07.031Z,1.45
2019-03-03T11:10:46.193Z,1.60
2019-03-03T11:13:16.378Z,1.90
2019-03-03T11:15:58.476Z,1.57
2019-03-03T11:18:37.427Z,0.95
2019-03-03T11:21:25.522Z,1.40
2019-03-03T11:23:55.804Z,3.70
2019-03-03T11:26:43.441Z,1.32
2019-03-03T11:29:13.591Z,1.15
2019-03-03T11:31:46.474Z,1.62
2019-03-03T11:34:16.721Z,1.35
2019-03-03T11:36:52.752Z,2.80
2019-03-03T11:39:37.851Z,1.25
2019-03-03T11:42:13.729Z,2.83
2019-03-03T11:44:59.894Z,2.40
2019-03-03T11:47:42.003Z,0.60
2019-03-03T11:50:28.734Z,2.02
2019-03-03T11:53:14.271Z,1.10
2019-03-03T11:55:50.859Z,0.90
2019-03-03T11:58:32.877Z,0.50
2019-03-03T12:01:19.687Z,0.53
2019-03-03T12:03:50.708Z,0.62
2019-03-03T12:06:23.462Z,1.00
2019-03-03T12:09:08.632Z,1.52
2019-03-03T12:11:50.544Z,1.85
2019-03-03T12:14:23.530Z,1.70
2019-03-03T12:16:53.682Z,0.75
2019-03-03T12:19:36.164Z,1.82
2019-03-03T12:22:06.398Z,1.75
2019-03-03T12:24:42.057Z,0.50
2019-03-03T12:27:12.282Z,1.15
2019-03-03T12:30:00.372Z,0.45
2019-03-03T12:32:33.810Z,0.70
2019-03-03T12:35:09.988Z,0.50
2019-03-03T12:37:40.258Z,0.70
2019-03-03T12:40:29.709Z,1.40
2019-03-03T12:43:05.658Z,2.35
2019-03-03T12:45:38.448Z,3.00
2019-03-03T12:48:17.535Z,2.05
2019-03-03T12:50:50.238Z,1.57
2019-03-03T12:53:23.306Z,0.78
2019-03-03T12:55:56.232Z,0.60
2019-03-03T12:58:32.265Z,3.05
2019-03-03T13:01:18.716Z,1.00
2019-03-03T13:04:13.002Z,2.47
2019-03-03T13:07:04.014Z,1.00
2019-03-03T13:09:51.998Z,1.45
2019-03-03T13:12:29.455Z,0.68
2019-03-03T13:14:59.777Z,2.62
2019-03-03T13:17:34.616Z,0.47
2019-03-03T13:20:06.374Z,0.72
2019-03-03T13:22:50.292Z,3.50
2019-03-03T13:25:27.699Z,0.57
2019-03-03T13:28:10.407Z,0.50
2019-03-03T13:30:42.040Z,0.98
2019-03-03T13:33:32.450Z,3.00
2019-03-03T13:36:07.224Z,1.40
2019-03-03T13:38:41.811Z,0.78
2019-03-03T13:41:21.221Z,0.70
2019-03-03T13:43:55.113Z,1.35
2019-03-03T13:46:23.604Z,2.52
2019-03-03T13:48:52.452Z,3.27
2019-03-03T13:51:21.197Z,2.40
2019-03-03T13:53:53.314Z,0.70
2019-03-03T13:56:22.007Z,4.20
2019-03-03T13:58:51.675Z,2.20
2019-03-03T14:01:21.983Z,0.70
2019-03-03T14:03:52.638Z,1.47
2019-03-03T14:06:20.998Z,1.65
2019-03-03T14:08:49.674Z,0.85
2019-03-03T14:11:29.101Z,2.17
2019-03-03T14:13:57.830Z,4.50
2019-03-03T14:16:26.581Z,1.15
2019-03-03T14:18:55.219Z,0.90
2019-03-03T14:21:23.873Z,1.22
2019-03-03T14:23:52.935Z,1.95
2019-03-03T14:26:21.902Z,1.55
2019-03-03T14:28:50.549Z,1.07
2019-03-03T14:31:19.172Z,3.20
2019-03-03T14:33:47.828Z,1.80
2019-03-03T14:36:17.641Z,7.03
2019-03-03T14:38:46.240Z,10.78
2019-03-03T14:41:15.032Z,1.65
2019-03-03T14:43:44.046Z,3.35
2019-03-03T14:46:12.689Z,8.33
2019-03-03T14:48:41.354Z,11.12
2019-03-03T14:51:09.970Z,3.00
2019-03-03T14:53:38.978Z,2.72
2019-03-03T14:56:07.657Z,1.40
2019-03-03T14:58:36.315Z,1.30
2019-03-03T15:01:04.965Z,0.90
2019-03-03T15:03:33.615Z,2.45
2019-03-03T15:06:02.235Z,3.10
2019-03-03T15:08:30.932Z,1.37
2019-03-03T15:10:59.547Z,3.33
2019-03-03T15:13:28.203Z,4.37
2019-03-03T15:15:56.847Z,2.05
2019-03-03T15:18:25.495Z,1.20
2019-03-03T15:20:54.512Z,0.90
2019-03-03T15:23:23.504Z,3.02
2019-03-03T15:25:52.115Z,5.08
2019-03-03T15:28:20.757Z,1.62
2019-03-03T15:30:49.428Z,1.57
2019-03-03T15:33:18.036Z,1.10
2019-03-03T15:35:46.696Z,0.95
2019-03-03T15:38:15.315Z,2.92
2019-03-03T15:40:43.930Z,15.10
2019-03-03T15:43:12.601Z,10.38
2019-03-03T15:45:41.556Z,1.87
2019-03-03T15:48:10.227Z,6.45
2019-03-03T15:50:38.847Z,11.30
2019-03-03T15:53:07.521Z,5.08
2019-03-03T15:55:36.509Z,8.05
2019-03-03T15:58:05.501Z,3.70
2019-03-03T16:00:36.358Z,7.42
2019-03-03T16:03:05.153Z,15.75
2019-03-03T16:05:34.003Z,4.80
2019-03-03T16:08:02.651Z,3.72
2019-03-03T16:10:33.060Z,4.60
2019-03-03T16:13:03.752Z,4.10
2019-03-03T16:15:31.994Z,4.60
2019-03-03T16:18:00.645Z,11.38
2019-03-03T16:20:29.261Z,8.25
2019-03-03T16:22:57.912Z,2.98
2019-03-03T16:25:26.676Z,3.02
2019-03-03T16:27:55.589Z,2.00
2019-03-03T16:30:25.011Z,1.60
2019-03-03T16:32:53.666Z,1.72
2019-03-03T16:35:22.321Z,9.60
2019-03-03T16:37:50.970Z,9.13
2019-03-03T16:40:23.529Z,11.68
2019-03-03T16:42:53.820Z,11.03
2019-03-03T16:45:22.789Z,6.00
2019-03-03T16:47:51.702Z,2.75
2019-03-03T16:50:21.354Z,2.22
2019-03-03T16:52:49.990Z,3.40
2019-03-03T16:55:19.461Z,6.25
2019-03-03T16:57:48.122Z,3.45
2019-03-03T17:00:25.505Z,12.07
2019-03-03T17:02:54.138Z,11.30
2019-03-03T17:05:27.141Z,2.12
2019-03-03T17:07:55.795Z,3.02
2019-03-03T17:10:24.450Z,2.45
2019-03-03T17:12:53.088Z,1.87
2019-03-03T17:15:23.490Z,5.25
2019-03-03T17:17:52.141Z,4.20
2019-03-03T17:20:21.070Z,1.40
2019-03-03T17:22:49.769Z,1.27
2019-03-03T17:25:20.919Z,1.00
2019-03-03T17:27:49.575Z,0.90
2019-03-03T17:30:28.000Z,3.10
2019-03-03T17:32:56.635Z,1.70
2019-03-03T17:35:25.340Z,1.57
2019-03-03T17:37:53.981Z,1.85
2019-03-03T17:40:26.636Z,2.40
2019-03-03T17:42:55.618Z,1.80
2019-03-03T17:45:24.638Z,2.25
2019-03-03T17:47:53.396Z,2.20
2019-03-03T17:50:29.005Z,1.47
2019-03-03T17:52:57.586Z,1.13
2019-03-03T17:55:26.207Z,11.57
2019-03-03T17:57:54.871Z,2.33
2019-03-03T18:00:26.725Z,1.65
2019-03-03T18:02:55.292Z,1.30
2019-03-03T18:05:24.218Z,1.62
2019-03-03T18:07:52.937Z,2.40
2019-03-03T18:10:21.674Z,1.95
2019-03-03T18:12:50.334Z,1.10
2019-03-03T18:15:18.971Z,0.98
2019-03-03T18:17:47.581Z,1.90
2019-03-03T18:20:22.645Z,28.10
2019-03-03T18:22:51.298Z,30.72
2019-03-03T18:25:21.054Z,15.17
2019-03-03T18:27:49.731Z,13.87
2019-03-03T18:30:20.112Z,11.03
2019-03-03T18:32:48.713Z,3.87
2019-03-03T18:35:17.434Z,2.92
2019-03-03T18:37:46.067Z,4.20
2019-03-03T18:40:25.881Z,2.20
2019-03-03T18:42:54.460Z,1.80
2019-03-03T18:45:23.669Z,2.52
2019-03-03T18:47:52.642Z,1.80
2019-03-03T18:50:28.791Z,2.27
2019-03-03T18:52:59.684Z,2.10
2019-03-03T18:55:27.705Z,2.40
2019-03-03T18:57:56.483Z,3.83
2019-03-03T19:00:29.384Z,1.93
2019-03-03T19:02:58.538Z,2.85
2019-03-03T19:05:27.291Z,2.00
2019-03-03T19:07:57.413Z,2.17
2019-03-03T19:10:28.170Z,2.77
2019-03-03T19:12:56.825Z,1.60
2019-03-03T19:15:25.452Z,1.90
2019-03-03T19:17:54.465Z,4.00
2019-03-03T19:20:23.066Z,3.57
2019-03-03T19:22:52.138Z,4.97
2019-03-03T19:25:20.671Z,3.03
2019-03-03T19:27:49.336Z,3.83
2019-03-03T19:30:22.764Z,3.50
2019-03-03T19:33:17.613Z,3.85
2019-03-03T19:35:46.269Z,5.15
2019-03-03T19:38:14.912Z,6.30
2019-03-03T19:40:43.518Z,5.47
2019-03-03T19:43:12.181Z,2.77
2019-03-03T19:45:42.493Z,5.50
2019-03-03T19:48:11.659Z,4.70
2019-03-03T19:50:40.304Z,6.30
2019-03-03T19:53:10.106Z,7.10
2019-03-03T19:55:38.748Z,3.83
2019-03-03T19:58:07.402Z,5.43
2019-03-03T20:00:41.101Z,4.43
2019-03-03T20:03:09.736Z,6.90
2019-03-03T20:05:38.376Z,4.13
2019-03-03T20:08:06.979Z,4.93
2019-03-03T20:10:35.636Z,5.90
2019-03-03T20:13:04.266Z,2.77
2019-03-03T20:15:32.919Z,4.90
2019-03-03T20:18:01.907Z,3.57
2019-03-03T20:20:30.538Z,5.23
2019-03-03T20:22:59.306Z,4.43
2019-03-03T20:25:28.371Z,4.67
2019-03-03T20:27:56.998Z,5.63
2019-03-03T20:30:26.068Z,4.77
2019-03-03T20:32:54.677Z,5.63
2019-03-03T20:35:23.323Z,6.20
2019-03-03T20:37:51.940Z,2.30
2019-03-03T20:40:24.738Z,1.63
2019-03-03T20:42:54.455Z,4.70
2019-03-03T20:45:30.834Z,4.43
2019-03-03T20:47:59.444Z,3.40
2019-03-03T20:50:28.200Z,3.47
2019-03-03T20:52:56.811Z,3.50
2019-03-03T20:55:26.863Z,7.53
2019-03-03T20:57:55.517Z,8.17
2019-03-03T21:00:31.222Z,4.17
2019-03-03T21:02:59.878Z,5.80
2019-03-03T21:05:28.498Z,4.00
2019-03-03T21:07:57.146Z,2.00
2019-03-03T21:10:35.031Z,1.87
2019-03-03T21:13:03.656Z,9.00
2019-03-03T21:15:32.291Z,3.63
2019-03-03T21:18:00.898Z,2.83
2019-03-03T21:20:29.555Z,4.40
2019-03-03T21:22:58.176Z,2.40
2019-03-03T21:25:26.843Z,5.60
2019-03-03T21:27:55.508Z,4.17
2019-03-03T21:30:27.892Z,2.93
2019-03-03T21:32:56.734Z,2.93
2019-03-03T21:35:25.340Z,3.30
2019-03-03T21:37:54.043Z,3.63
2019-03-03T21:40:25.061Z,3.27
2019-03-03T21:42:54.505Z,3.07
2019-03-03T21:45:27.075Z,2.17
2019-03-03T21:47:56.105Z,9.03
2019-03-03T21:50:31.492Z,2.70
2019-03-03T21:53:00.107Z,2.03
2019-03-03T21:55:28.947Z,2.40
2019-03-03T21:57:57.596Z,1.80
2019-03-03T22:00:32.315Z,3.27
2019-03-03T22:03:00.925Z,2.87
2019-03-03T22:05:30.028Z,1.13
2019-03-03T22:07:58.687Z,2.33
2019-03-03T22:10:30.323Z,2.30
2019-03-03T22:13:07.560Z,3.40
2019-03-03T22:15:36.211Z,1.37
2019-03-03T22:18:06.801Z,2.83
2019-03-03T22:20:35.111Z,1.40
2019-03-03T22:23:03.926Z,3.90
2019-03-03T22:25:32.571Z,1.43
2019-03-03T22:28:01.188Z,1.40
2019-03-03T22:30:29.989Z,1.80
2019-03-03T22:32:58.598Z,1.83
2019-03-03T22:35:27.746Z,1.73
2019-03-03T22:37:56.361Z,1.73
2019-03-03T22:40:25.258Z,1.50
2019-03-03T22:42:53.889Z,1.57
2019-03-03T22:45:22.735Z,3.60
2019-03-03T22:47:51.387Z,2.90
2019-03-03T22:50:21.874Z,3.00
2019-03-03T22:52:50.535Z,1.53
2019-03-03T22:55:21.108Z,2.23
2019-03-03T22:57:49.822Z,2.00
2019-03-03T23:00:29.257Z,4.77
2019-03-03T23:02:57.900Z,2.47
2019-03-03T23:05:44.823Z,3.53
2019-03-03T23:08:22.448Z,3.53
2019-03-03T23:11:05.772Z,3.90
2019-03-03T23:13:49.974Z,1.90
2019-03-03T23:16:27.670Z,3.13
2019-03-03T23:19:11.576Z,1.80
2019-03-03T23:21:58.539Z,2.10
2019-03-03T23:24:30.401Z,3.13
2019-03-03T23:27:00.039Z,5.10
2019-03-03T23:29:28.731Z,2.07
2019-03-03T23:31:57.684Z,1.60
2019-03-03T23:34:26.680Z,2.77
2019-03-03T23:36:55.290Z,1.87
2019-03-03T23:39:23.922Z,2.37
2019-03-03T23:41:52.490Z,5.70
2019-03-03T23:44:21.051Z,2.70
2019-03-03T23:46:49.701Z,2.53
2019-03-03T23:49:18.324Z,1.30
2019-03-03T23:51:46.983Z,5.83
2019-03-03T23:54:15.592Z,2.87
2019-03-03T23:56:44.256Z,2.47
2019-03-03T23:59:13.217Z,3.10
